Flight Track Log - Related Links

Times and Time Zones

All times are in EDT time to prevent confusion due to time zone crossing. See the FLG3429 flight status page for this flight to view local times or setup timezone preferences in your user account.

Time Position Orientation Groundspeed Altitude Reporting Facility
EDT Latitude Longitude Course Direction KTS MPH feet Rate Location/Type
Mon 07:59:34 PM 40.6500 -73.8500 217° Southwest 196 226 1,700  Level New York TRACON
Mon 08:00:34 PM 40.6000 -73.9167 225° Southwest 238 274 3,700 2,200 Climbing New York TRACON
Mon 08:01:00 PM 40.4221 -74.1052 233° Southwest  Level FlightAware Approximate
Mon 08:01:34 PM 40.5333 -73.9667 210° Southwest 286 329 6,100  Level New York TRACON
Mon 08:02:00 PM 40.3504 -74.2272 232° Southwest  Level FlightAware Approximate
Mon 08:02:34 PM 40.4667 -74.0167 210° Southwest 290 334 8,800  Level New York TRACON
Mon 08:03:00 PM 40.2777 -74.3482 232° Southwest  Level FlightAware Approximate
Mon 08:03:34 PM 40.4000 -74.1000 224° Southwest 306 352 10,900  Level New York TRACON
Mon 08:04:00 PM 40.2046 -74.4620 217° Southwest  Level FlightAware Approximate
Mon 08:05:06 PM 40.3433 -74.2567 245° Southwest 339 390 13,000  Level New York Center
Mon 08:06:08 PM 40.3189 -74.3833 256° West 354 407 14,900 1,850 Climbing New York Center
Mon 08:07:06 PM 40.2936 -74.5181 256° West 378 435 16,700 1,650 Climbing New York Center
Mon 08:08:08 PM 40.2686 -74.6500 256° West 384 442 18,200 1,475 Climbing New York Center
Mon 08:09:08 PM 40.2431 -74.7900 257° West 394 453 19,700 1,462 Climbing New York Center
Mon 08:10:07 PM 40.2172 -74.9353 257° West 399 459 21,100 1,613 Climbing New York Center
Mon 08:11:07 PM 40.1767 -75.0767 249° West 405 466 22,900 1,714 Climbing New York Center
Mon 08:12:06 PM 40.1547 -75.2194 259° West 410 472 24,500 1,311 Climbing New York Center
Mon 08:13:06 PM 40.1350 -75.3539 259° West 418 481 25,500 992 Climbing New York Center
Mon 08:14:07 PM 40.0633 -75.4767 233° Southwest 412 474 26,500 942 Climbing New York Center
Mon 08:15:07 PM 39.9797 -75.5903 226° Southwest 418 481 27,400 835 Climbing New York Center
Mon 08:16:45 PM 39.8447 -75.7942 229° Southwest 447 514 28,700 830 Climbing Washington Center
Mon 08:17:46 PM 39.7631 -75.9236 231° Southwest 465 535 29,600 836 Climbing Washington Center
Mon 08:18:47 PM 39.6772 -76.0553 230° Southwest 476 548 30,400 793 Climbing Washington Center
Mon 08:19:47 PM 39.5956 -76.1867 231° Southwest 476 548 31,200 763 Climbing Washington Center
Mon 08:20:45 PM 39.5072 -76.3206 229° Southwest 482 555 31,900 915 Climbing Washington Center
Mon 08:21:45 PM 39.4208 -76.4567 231° Southwest 482 555 33,000 942 Climbing Washington Center
Mon 08:22:46 PM 39.3322 -76.5897 229° Southwest 487 560 33,800 492 Climbing Washington Center
Mon 08:23:47 PM 39.2478 -76.7253 231° Southwest 487 560 34,000 100 Climbing Washington Center
Mon 08:24:46 PM 39.1589 -76.8631 230° Southwest 493 567 34,000  Level Washington Center
Mon 08:25:47 PM 39.0697 -77.0006 230° Southwest 499 574 34,000  Level Washington Center
Mon 08:26:47 PM 38.9683 -77.1214 223° Southwest 499 574 34,000  Level Washington Center
Mon 08:27:48 PM 38.8647 -77.2339 220° Southwest 494 568 34,000  Level Washington Center
Mon 08:28:45 PM 38.7589 -77.3486 220° Southwest 494 568 34,000  Level Washington Center
Mon 08:29:45 PM 38.6550 -77.4606 220° Southwest 494 568 34,000  Level Washington Center
Mon 08:30:45 PM 38.5531 -77.5722 221° Southwest 489 563 34,000  Level Washington Center
Mon 08:31:46 PM 38.4511 -77.6861 221° Southwest 489 563 34,000  Level Washington Center
Mon 08:32:46 PM 38.3492 -77.7944 220° Southwest 489 563 34,000  Level Washington Center
Mon 08:33:47 PM 38.2447 -77.9050 220° Southwest 489 563 34,000  Level Washington Center
Mon 08:34:47 PM 38.1447 -78.0156 221° Southwest 489 563 34,000  Level Washington Center
Mon 08:35:47 PM 38.0422 -78.1231 220° Southwest 489 563 34,000  Level Washington Center
Mon 08:36:45 PM 37.9400 -78.2275 219° Southwest 484 557 34,000  Level Washington Center
Mon 08:37:47 PM 37.8314 -78.3261 216° Southwest 484 557 34,000  Level Washington Center
Mon 08:38:45 PM 37.7247 -78.4300 218° Southwest 489 563 34,000  Level Washington Center
Mon 08:39:46 PM 37.6053 -78.5408 216° Southwest 494 568 34,000  Level Washington Center
Mon 08:40:48 PM 37.4983 -78.6414 217° Southwest 494 568 34,000  Level Washington Center
Mon 08:41:45 PM 37.3894 -78.7442 217° Southwest 494 568 34,000  Level Washington Center
Mon 08:42:46 PM 37.2803 -78.8442 216° Southwest 494 568 34,000  Level Washington Center
Mon 08:43:46 PM 37.1711 -78.9464 217° Southwest 494 568 34,000  Level Washington Center
Mon 08:44:47 PM 37.0725 -79.0383 217° Southwest 494 568 34,000  Level Washington Center
Mon 08:45:45 PM 36.9653 -79.1350 216° Southwest 494 568 34,000  Level Washington Center
Mon 08:48:31 PM 36.6633 -79.4117 216° Southwest 481 554 34,000  Level Atlanta Center
Mon 08:49:31 PM 36.5547 -79.5136 217° Southwest 487 560 34,000  Level Atlanta Center
Mon 08:50:31 PM 36.4356 -79.6183 215° Southwest 487 560 34,000  Level Atlanta Center
Mon 08:51:31 PM 36.3283 -79.7169 217° Southwest 487 560 34,000  Level Atlanta Center
Mon 08:52:31 PM 36.2192 -79.8181 217° Southwest 487 560 34,000  Level Atlanta Center
Mon 08:53:31 PM 36.1078 -79.9139 215° Southwest 494 568 34,000  Level Atlanta Center
Mon 08:54:31 PM 36.0083 -79.9933 213° Southwest 488 562 34,000  Level Atlanta Center
Mon 08:55:31 PM 35.8850 -80.0533 202° Southwest 475 547 34,000  Level Atlanta Center
Mon 08:56:31 PM 35.7597 -80.1106 200° South 475 547 34,000  Level Atlanta Center
Mon 08:57:31 PM 35.6317 -80.1525 195° South 475 547 34,000  Level Atlanta Center
Mon 08:58:31 PM 35.5036 -80.1917 194° South 475 547 34,000  Level Atlanta Center
Mon 08:59:31 PM 35.3775 -80.2308 194° South 475 547 34,000  Level Atlanta Center
Mon 09:00:31 PM 35.2453 -80.2725 194° South 475 547 34,000  Level Atlanta Center
Mon 09:02:02 PM 35.0494 -80.3342 194° South 485 558 34,000  Level Jacksonville Center
Mon 09:03:02 PM 34.9086 -80.3739 193° South 480 552 34,000  Level Jacksonville Center
Mon 09:04:02 PM 34.7989 -80.4150 197° South 475 547 34,000  Level Jacksonville Center
Mon 09:05:02 PM 34.6681 -80.4439 190° South 470 541 34,000  Level Jacksonville Center
Mon 09:06:02 PM 34.5394 -80.4828 194° South 470 541 34,000  Level Jacksonville Center
Mon 09:07:02 PM 34.4086 -80.5192 193° South 470 541 34,000  Level Jacksonville Center
Mon 09:08:02 PM 34.2822 -80.5556 193° South 470 541 34,000  Level Jacksonville Center
Mon 09:09:02 PM 34.1492 -80.5917 193° South 476 548 34,000  Level Jacksonville Center
Mon 09:10:02 PM 34.0228 -80.6275 193° South 476 548 34,000  Level Jacksonville Center
Mon 09:11:02 PM 33.8897 -80.6633 193° South 476 548 34,000  Level Jacksonville Center
Mon 09:12:02 PM 33.7631 -80.6992 193° South 481 554 34,000  Level Jacksonville Center
Mon 09:13:02 PM 33.6303 -80.7347 193° South 486 559 34,000  Level Jacksonville Center
Mon 09:14:02 PM 33.5014 -80.7703 193° South 486 559 34,000 -150 Level Jacksonville Center
Mon 09:15:02 PM 33.3725 -80.8058 193° South 486 559 33,700 -900 Descending Jacksonville Center
Mon 09:16:02 PM 33.2417 -80.8411 193° South 486 559 32,200 -1,233 Descending Jacksonville Center
Mon 09:18:02 PM 32.9756 -80.9117 193° South 475 547 30,000 -733 Descending Jacksonville Center
Mon 09:19:02 PM 32.8467 -80.9442 192° South 475 547 30,000  Level Jacksonville Center
Mon 09:20:02 PM 32.7136 -80.9817 193° South 475 547 30,000  Level Jacksonville Center
Mon 09:21:02 PM 32.5786 -81.0214 194° South 492 566 30,000  Level Jacksonville Center
Mon 09:22:02 PM 32.4433 -81.0561 192° South 492 566 30,000  Level Jacksonville Center
Mon 09:23:02 PM 32.3144 -81.0956 195° South 492 566 30,000 -800 Level Jacksonville Center
Mon 09:24:02 PM 32.1814 -81.1325 193° South 484 557 28,400 -1,750 Descending Jacksonville Center
Mon 09:25:02 PM 32.0525 -81.1669 193° South 481 554 26,500 -2,000 Descending Jacksonville Center
Mon 09:26:02 PM 31.9319 -81.2033 194° South 457 526 24,400 -2,000 Descending Jacksonville Center
Mon 09:27:02 PM 31.8194 -81.2350 193° South 432 497 22,500 -1,800 Descending Jacksonville Center
Mon 09:28:02 PM 31.7133 -81.2636 193° South 432 497 20,800 -1,900 Descending Jacksonville Center
Mon 09:29:02 PM 31.5886 -81.2975 193° South 421 484 18,700 -1,850 Descending Jacksonville Center
Mon 09:30:02 PM 31.4825 -81.3286 194° South 401 461 17,100 -1,700 Descending Jacksonville Center
Mon 09:31:02 PM 31.3889 -81.3519 192° South 395 455 15,300 -1,950 Descending Jacksonville Center
Mon 09:32:02 PM 31.2722 -81.3881 195° South 393 452 13,200 -1,950 Descending Jacksonville Center
Mon 09:33:02 PM 31.1703 -81.4139 192° South 388 447 11,400 -1,600 Descending Jacksonville Center
Mon 09:34:02 PM 31.0706 -81.4422 194° South 383 441 10,000 -700 Descending Jacksonville Center
Mon 09:35:02 PM 30.9728 -81.4703 194° South 376 433 10,000  Level Jacksonville Center
Mon 09:36:02 PM 30.8814 -81.5272 208° Southwest 371 427 10,000 -238 Level Jacksonville Center
Mon 09:36:43 PM 30.8294 -81.5572 206° Southwest 293 337 9,600 -1,267 Descending Jacksonville Center
Mon 09:37:32 PM 30.7714 -81.5967 210° Southwest 300 345 8,100 -1,291 Descending Jacksonville Center
Mon 09:38:02 PM 30.7361 -81.6214 211° Southwest 320 368 7,900 -1,200 Descending Jacksonville Center
Mon 09:39:02 PM 30.6678 -81.6681 210° Southwest 300 345 6,300 -1,615 Descending Jacksonville Center
Mon 09:39:46 PM 30.6181 -81.7000 209° Southwest 283 326 5,100 -1,269 Descending Jacksonville Center
Mon 09:40:46 PM 30.5706 -81.7756 234° Southwest 261 300 4,100 -1,388 Descending Jacksonville Center
Mon 09:41:47 PM 30.5292 -81.8097 215° Southwest 174 200 2,300 -1,770 Descending Jacksonville Center

Login

Don't have an account? Register now (free) for customized features, flight alerts, and more!